Time,TemperatureF,DewpointF,PressureIn,WindDirection,WindDirectionDegrees,WindSpeedMPH,WindSpeedGustMPH,Humidity,HourlyPrecipIn,Conditions,Clouds,dailyrainin,SolarRadiationWatts/m^2,SoftwareType,DateUTC
2013-03-11 00:02:00,40.0,17.0,30.20,SSW,208,16.0,19.0,40,-99.99,,,-99.99,-0.100000,,2013-03-11 06:02:00,
2013-03-11 00:11:00,40.0,17.0,30.19,SSW,210,18.0,24.0,39,-99.99,,,-99.99,-0.100000,,2013-03-11 06:11:00,
2013-03-11 00:21:00,41.0,17.0,30.19,SW,214,18.0,22.0,38,-99.99,,,-99.99,0.000000,,2013-03-11 06:21:00,
2013-03-11 00:32:00,42.0,17.0,30.19,SSW,212,19.0,24.0,36,-99.99,,,-99.99,-0.100000,,2013-03-11 06:32:00,
2013-03-11 00:42:00,42.0,17.0,30.18,SW,214,20.0,27.0,37,-99.99,,,-99.99,-0.100000,,2013-03-11 06:42:00,
2013-03-11 00:52:00,42.0,16.0,30.18,SSW,213,22.0,28.0,35,-99.99,,,-99.99,-0.100000,,2013-03-11 06:52:00,
2013-03-11 01:01:00,42.0,17.0,30.18,SSW,213,23.0,29.0,36,-99.99,,,-99.99,0.000000,,2013-03-11 07:01:00,
2013-03-11 01:11:00,42.0,18.0,30.17,SW,214,20.0,25.0,38,-99.99,,,-99.99,-0.100000,,2013-03-11 07:11:00,
2013-03-11 01:21:00,42.0,17.0,30.17,SSW,212,22.0,28.0,36,-99.99,,,-99.99,-0.100000,,2013-03-11 07:21:00,
2013-03-11 01:32:00,42.0,18.0,30.17,SW,216,20.0,25.0,37,-99.99,,,-99.99,-0.100000,,2013-03-11 07:32:00,
2013-03-11 01:41:00,42.0,18.0,30.17,SW,219,19.0,26.0,38,-99.99,,,-99.99,0.000000,,2013-03-11 07:41:00,
2013-03-11 01:52:00,42.0,18.0,30.16,SW,216,21.0,28.0,37,-99.99,,,-99.99,0.000000,,2013-03-11 07:52:00,
2013-03-11 02:02:00,42.0,18.0,30.16,SW,220,20.0,25.0,38,-99.99,,,-99.99,0.000000,,2013-03-11 08:02:00,
2013-03-11 02:11:00,42.0,18.0,30.16,SW,221,19.0,24.0,39,-99.99,,,-99.99,-0.100000,,2013-03-11 08:11:00,
2013-03-11 02:21:00,41.0,18.0,30.17,SW,219,20.0,25.0,39,-99.99,,,-99.99,0.000000,,2013-03-11 08:21:00,
2013-03-11 02:32:00,41.0,19.0,30.17,SW,220,17.0,24.0,41,-99.99,,,-99.99,-0.100000,,2013-03-11 08:32:00,
2013-03-11 02:41:00,41.0,19.0,30.17,SW,224,17.0,19.0,41,-99.99,,,-99.99,-0.100000,,2013-03-11 08:41:00,
2013-03-11 02:51:00,40.0,19.0,30.17,SW,215,18.0,23.0,43,-99.99,,,-99.99,0.000000,,2013-03-11 08:51:00,
2013-03-11 03:01:00,40.0,19.0,30.17,SW,216,19.0,24.0,43,-99.99,,,-99.99,0.000000,,2013-03-11 09:01:00,
2013-03-11 03:11:00,40.0,18.0,30.17,SW,223,18.0,22.0,41,-99.99,,,-99.99,0.000000,,2013-03-11 09:11:00,
2013-03-11 03:21:00,40.0,18.0,30.17,SW,226,18.0,27.0,40,-99.99,,,-99.99,-0.100000,,2013-03-11 09:21:00,
2013-03-11 03:32:00,40.0,18.0,30.17,SW,226,20.0,27.0,40,-99.99,,,-99.99,0.000000,,2013-03-11 09:32:00,
2013-03-11 03:41:00,40.0,19.0,30.17,SW,217,18.0,22.0,43,-99.99,,,-99.99,0.000000,,2013-03-11 09:41:00,
2013-03-11 03:52:00,39.0,20.0,30.17,SW,218,17.0,20.0,45,-99.99,,,-99.99,0.000000,,2013-03-11 09:52:00,
2013-03-11 04:02:00,39.0,20.0,30.16,SW,216,18.0,22.0,45,-99.99,,,-99.99,-0.100000,,2013-03-11 10:02:00,
2013-03-11 04:11:00,39.0,19.0,30.15,SW,216,18.0,23.0,45,-99.99,,,-99.99,-0.100000,,2013-03-11 10:11:00,
2013-03-11 04:21:00,39.0,19.0,30.15,SW,217,18.0,26.0,44,-99.99,,,-99.99,-0.100000,,2013-03-11 10:21:00,
2013-03-11 04:32:00,39.0,19.0,30.14,SW,218,17.0,23.0,45,-99.99,,,-99.99,0.000000,,2013-03-11 10:32:00,
2013-03-11 04:41:00,39.0,19.0,30.14,SW,214,17.0,22.0,45,-99.99,,,-99.99,0.000000,,2013-03-11 10:41:00,
2013-03-11 04:52:00,39.0,19.0,30.13,SSW,206,17.0,20.0,45,-99.99,,,-99.99,-0.100000,,2013-03-11 10:52:00,
2013-03-11 05:01:00,39.0,19.0,30.13,SSW,210,16.0,21.0,45,-99.99,,,-99.99,-0.100000,,2013-03-11 11:01:00,
2013-03-11 05:11:00,39.0,19.0,30.13,SSW,213,17.0,22.0,44,-99.99,,,-99.99,0.000000,,2013-03-11 11:11:00,
2013-03-11 05:21:00,39.0,19.0,30.14,SW,214,19.0,26.0,44,-99.99,,,-99.99,-0.100000,,2013-03-11 11:21:00,
2013-03-11 05:32:00,39.0,19.0,30.14,SW,214,17.0,20.0,45,-99.99,,,-99.99,-0.100000,,2013-03-11 11:32:00,
2013-03-11 05:41:00,38.0,20.0,30.14,SW,214,15.0,19.0,46,-99.99,,,-99.99,-0.100000,,2013-03-11 11:41:00,
2013-03-11 05:52:00,39.0,20.0,30.15,SSW,212,15.0,18.0,46,-99.99,,,-99.99,-0.100000,,2013-03-11 11:52:00,
2013-03-11 06:01:00,39.0,19.0,30.15,SSW,212,19.0,23.0,44,-99.99,,,-99.99,0.000000,,2013-03-11 12:01:00,
2013-03-11 06:11:00,39.0,20.0,30.15,SSW,213,17.0,21.0,46,-99.99,,,-99.99,0.000000,,2013-03-11 12:11:00,
2013-03-11 06:21:00,39.0,20.0,30.15,SSW,209,16.0,18.0,46,-99.99,,,-99.99,0.000000,,2013-03-11 12:21:00,
2013-03-11 06:32:00,39.0,19.0,30.15,SSW,204,18.0,21.0,45,-99.99,,,-99.99,-0.100000,,2013-03-11 12:32:00,
2013-03-11 06:42:00,39.0,19.0,30.15,SSW,209,17.0,23.0,44,-99.99,,,-99.99,-0.100000,,2013-03-11 12:42:00,
2013-03-11 06:52:00,39.0,19.0,30.14,SSW,210,17.0,22.0,44,-99.99,,,-99.99,-0.100000,,2013-03-11 12:52:00,
2013-03-11 07:01:00,39.0,19.0,30.14,SW,214,17.0,21.0,45,-99.99,,,-99.99,-0.100000,,2013-03-11 13:01:00,
2013-03-11 07:11:00,39.0,19.0,30.14,SSW,210,19.0,23.0,44,-99.99,,,-99.99,-0.100000,,2013-03-11 13:11:00,
2013-03-11 07:21:00,39.0,20.0,30.14,SSW,208,17.0,20.0,46,-99.99,,,-99.99,-0.100000,,2013-03-11 13:21:00,
2013-03-11 07:32:00,38.0,20.0,30.14,SSW,203,17.0,22.0,47,-99.99,,,-99.99,-0.100000,,2013-03-11 13:32:00,
2013-03-11 07:41:00,38.0,20.0,30.14,SSW,205,17.0,20.0,48,-99.99,,,-99.99,-0.100000,,2013-03-11 13:41:00,
2013-03-11 07:52:00,38.0,21.0,30.14,SSW,204,15.0,18.0,50,-99.99,,,-99.99,0.000000,,2013-03-11 13:52:00,
2013-03-11 08:01:00,38.0,21.0,30.14,SSW,202,13.0,16.0,50,-99.99,,,-99.99,1.600000,,2013-03-11 14:01:00,
2013-03-11 08:11:00,38.0,21.0,30.14,SSW,198,14.0,16.0,49,-99.99,,,-99.99,1.800000,,2013-03-11 14:11:00,
2013-03-11 08:21:00,38.0,21.0,30.14,SSW,198,15.0,18.0,49,-99.99,,,-99.99,6.200000,,2013-03-11 14:21:00,
2013-03-11 08:32:00,39.0,21.0,30.14,SSW,202,16.0,20.0,48,-99.99,,,-99.99,13.800000,,2013-03-11 14:32:00,
2013-03-11 08:41:00,39.0,21.0,30.14,SSW,208,13.0,17.0,49,-99.99,,,-99.99,20.600000,,2013-03-11 14:41:00,
2013-03-11 08:52:00,38.0,21.0,30.15,SSW,207,12.0,15.0,50,-99.99,,,-99.99,24.799999,,2013-03-11 14:52:00,
2013-03-11 09:02:00,39.0,21.0,30.15,SSW,205,13.0,16.0,49,-99.99,,,-99.99,38.099998,,2013-03-11 15:02:00,
2013-03-11 09:11:00,39.0,22.0,30.15,SSW,210,13.0,15.0,50,-99.99,,,-99.99,54.299999,,2013-03-11 15:11:00,
2013-03-11 09:21:00,39.0,22.0,30.15,SSW,212,12.0,15.0,50,-99.99,,,-99.99,63.700001,,2013-03-11 15:21:00,
2013-03-11 09:32:00,39.0,22.0,30.15,SSW,208,13.0,16.0,50,-99.99,,,-99.99,66.199997,,2013-03-11 15:32:00,
2013-03-11 09:42:00,40.0,22.0,30.15,SSW,207,15.0,17.0,50,-99.99,,,-99.99,86.400002,,2013-03-11 15:42:00,
2013-03-11 09:52:00,40.0,23.0,30.16,SW,216,14.0,17.0,50,-99.99,,,-99.99,99.000000,,2013-03-11 15:52:00,
2013-03-11 10:02:00,40.0,23.0,30.16,SSW,210,15.0,18.0,50,-99.99,,,-99.99,93.500000,,2013-03-11 16:02:00,
2013-03-11 10:11:00,40.0,23.0,30.16,SSW,207,17.0,23.0,49,-99.99,,,-99.99,115.300003,,2013-03-11 16:11:00,
2013-03-11 10:32:00,41.0,22.0,30.17,SW,221,13.0,17.0,47,-99.99,,,-99.99,114.000000,,2013-03-11 16:32:00,
2013-03-11 10:41:00,41.0,23.0,30.16,SW,215,15.0,20.0,48,-99.99,,,-99.99,149.399994,,2013-03-11 16:41:00,
2013-03-11 10:51:00,41.0,23.0,30.17,SW,226,16.0,20.0,48,-99.99,,,-99.99,157.399994,,2013-03-11 16:51:00,
2013-03-11 11:02:00,42.0,24.0,30.17,SW,231,17.0,24.0,49,-99.99,,,-99.99,186.699997,,2013-03-11 17:02:00,
2013-03-11 11:12:00,42.0,25.0,30.16,SW,228,19.0,24.0,50,-99.99,,,-99.99,256.600006,,2013-03-11 17:12:00,
2013-03-11 11:23:00,42.0,26.0,30.16,SW,232,19.0,24.0,52,-99.99,,,-99.99,219.000000,,2013-03-11 17:23:00,
2013-03-11 11:33:00,42.0,27.0,30.16,SW,234,19.0,24.0,53,-99.99,,,-99.99,240.199997,,2013-03-11 17:33:00,
2013-03-11 11:41:00,42.0,27.0,30.16,SW,230,19.0,24.0,54,-99.99,,,-99.99,185.000000,,2013-03-11 17:41:00,
2013-03-11 11:52:00,43.0,28.0,30.16,SW,226,19.0,23.0,56,-99.99,,,-99.99,171.300003,,2013-03-11 17:52:00,
2013-03-11 12:01:00,43.0,29.0,30.16,SW,229,20.0,25.0,57,-99.99,,,-99.99,174.899994,,2013-03-11 18:01:00,
2013-03-11 12:11:00,43.0,29.0,30.16,SW,232,20.0,24.0,57,-99.99,,,-99.99,186.899994,,2013-03-11 18:11:00,
2013-03-11 12:21:00,43.0,29.0,30.15,SW,226,19.0,23.0,58,-99.99,,,-99.99,206.399994,,2013-03-11 18:21:00,
2013-03-11 12:32:00,43.0,30.0,30.15,SW,232,18.0,24.0,59,-99.99,,,-99.99,227.899994,,2013-03-11 18:32:00,
2013-03-11 12:42:00,44.0,30.0,30.15,SW,234,19.0,22.0,58,-99.99,,,-99.99,244.199997,,2013-03-11 18:42:00,
2013-03-11 12:52:00,45.0,32.0,30.14,WSW,239,15.0,19.0,59,-99.99,,,-99.99,304.700012,,2013-03-11 18:52:00,
2013-03-11 13:02:00,46.0,32.0,30.13,WSW,240,18.0,26.0,58,-99.99,,,-99.99,390.299988,,2013-03-11 19:02:00,
2013-03-11 13:11:00,46.0,32.0,30.14,WSW,243,19.0,24.0,57,-99.99,,,-99.99,360.700012,,2013-03-11 19:11:00,
2013-03-11 13:32:00,48.0,32.0,30.14,West,267,17.0,24.0,53,-99.99,,,-99.99,350.600006,,2013-03-11 19:32:00,
2013-03-11 13:41:00,48.0,32.0,30.14,West,261,19.0,24.0,53,-99.99,,,-99.99,360.299988,,2013-03-11 19:41:00,
2013-03-11 13:52:00,49.0,33.0,30.13,WSW,243,20.0,26.0,54,-99.99,,,-99.99,378.700012,,2013-03-11 19:52:00,
2013-03-11 14:02:00,49.0,33.0,30.13,WSW,243,21.0,25.0,53,-99.99,,,-99.99,457.399994,,2013-03-11 20:02:00,
2013-03-11 14:11:00,49.0,33.0,30.12,WSW,246,18.0,23.0,52,-99.99,,,-99.99,394.200012,,2013-03-11 20:11:00,
2013-03-11 14:21:00,49.0,33.0,30.12,WSW,258,18.0,23.0,52,-99.99,,,-99.99,435.700012,,2013-03-11 20:21:00,
2013-03-11 14:32:00,49.0,33.0,30.11,WSW,244,17.0,22.0,53,-99.99,,,-99.99,303.500000,,2013-03-11 20:32:00,
2013-03-11 14:42:00,49.0,32.0,30.11,WSW,248,17.0,20.0,53,-99.99,,,-99.99,251.800003,,2013-03-11 20:42:00,
2013-03-11 14:52:00,49.0,34.0,30.11,WSW,244,15.0,18.0,54,-99.99,,,-99.99,432.799988,,2013-03-11 20:52:00,
2013-03-11 15:02:00,50.0,34.0,30.10,West,261,15.0,24.0,54,-99.99,,,-99.99,217.899994,,2013-03-11 21:02:00,
2013-03-11 15:11:00,47.0,36.0,30.10,WSW,246,11.0,15.0,63,-99.99,,,-99.99,142.000000,,2013-03-11 21:11:00,
2013-03-11 15:21:00,48.0,35.0,30.09,WSW,253,14.0,17.0,59,-99.99,,,-99.99,388.500000,,2013-03-11 21:21:00,
2013-03-11 15:32:00,49.0,35.0,30.09,WSW,242,15.0,20.0,57,-99.99,,,-99.99,166.800003,,2013-03-11 21:32:00,
2013-03-11 15:42:00,48.0,34.0,30.09,WSW,239,13.0,19.0,58,-99.99,,,-99.99,112.699997,,2013-03-11 21:42:00,
2013-03-11 15:51:00,47.0,34.0,30.09,WSW,245,12.0,17.0,60,-99.99,,,-99.99,68.199997,,2013-03-11 21:51:00,
2013-03-11 16:02:00,46.0,35.0,30.09,SW,236,9.0,12.0,63,-99.99,,,-99.99,50.799999,,2013-03-11 22:02:00,
2013-03-11 16:11:00,47.0,36.0,30.08,NW,326,6.0,15.0,65,-99.99,,,-99.99,90.800003,,2013-03-11 22:11:00,
2013-03-11 16:21:00,47.0,34.0,30.08,WNW,291,7.0,14.0,59,-99.99,,,-99.99,205.399994,,2013-03-11 22:21:00,
2013-03-11 16:32:00,51.0,35.0,30.08,West,276,18.0,25.0,54,-99.99,,,-99.99,590.299988,,2013-03-11 22:32:00,
2013-03-11 16:42:00,51.0,35.0,30.08,West,271,18.0,23.0,53,-99.99,,,-99.99,389.000000,,2013-03-11 22:42:00,
2013-03-11 16:52:00,50.0,33.0,30.08,West,270,16.0,22.0,53,-99.99,,,-99.99,171.899994,,2013-03-11 22:52:00,
2013-03-11 17:02:00,48.0,34.0,30.08,WSW,244,20.0,27.0,57,-99.99,,,-99.99,154.300003,,2013-03-11 23:02:00,
2013-03-11 17:11:00,47.0,34.0,30.09,WSW,248,16.0,25.0,59,-99.99,,,-99.99,94.000000,,2013-03-11 23:11:00,
2013-03-11 17:32:00,46.0,33.0,30.09,West,270,8.0,11.0,59,-99.99,,,-99.99,74.500000,,2013-03-11 23:32:00,
2013-03-11 17:42:00,45.0,35.0,30.10,WSW,257,9.0,11.0,67,-99.99,,,-99.99,30.100000,,2013-03-11 23:42:00,
2013-03-11 17:52:00,44.0,36.0,30.10,WSW,257,6.0,8.0,74,-99.99,,,-99.99,31.799999,,2013-03-11 23:52:00,
2013-03-11 18:02:00,43.0,37.0,30.10,SW,214,3.0,4.0,78,-99.99,,,-99.99,21.100000,,2013-03-12 00:02:00,
2013-03-11 18:11:00,43.0,36.0,30.09,SE,145,3.0,4.0,76,-99.99,,,-99.99,33.500000,,2013-03-12 00:11:00,
2013-03-11 18:22:00,43.0,37.0,30.09,SE,143,5.0,6.0,78,-99.99,,,-99.99,16.900000,,2013-03-12 00:22:00,
2013-03-11 18:32:00,43.0,37.0,30.09,SSE,166,5.0,6.0,78,-99.99,,,-99.99,13.200000,,2013-03-12 00:32:00,
2013-03-11 18:42:00,43.0,37.0,30.09,SSE,168,5.0,7.0,79,-99.99,,,-99.99,15.000000,,2013-03-12 00:42:00,
2013-03-11 18:52:00,44.0,37.0,30.09,SE,128,4.0,6.0,76,-99.99,,,-99.99,8.400000,,2013-03-12 00:52:00,
2013-03-11 19:02:00,43.0,37.0,30.09,SE,135,4.0,5.0,78,-99.99,,,-99.99,7.500000,,2013-03-12 01:02:00,
2013-03-11 19:11:00,43.0,37.0,30.09,SE,134,5.0,7.0,79,-99.99,,,-99.99,10.600000,,2013-03-12 01:11:00,
2013-03-11 19:21:00,42.0,37.0,30.09,SSE,152,6.0,10.0,81,-99.99,,,-99.99,13.600000,,2013-03-12 01:21:00,
2013-03-11 19:32:00,43.0,36.0,30.09,SSW,199,8.0,11.0,75,-99.99,,,-99.99,6.300000,,2013-03-12 01:32:00,
2013-03-11 19:41:00,44.0,35.0,30.09,SW,218,10.0,14.0,70,-99.99,,,-99.99,3.400000,,2013-03-12 01:41:00,
2013-03-11 19:52:00,43.0,35.0,30.09,SW,230,9.0,13.0,71,-99.99,,,-99.99,0.900000,,2013-03-12 01:52:00,
2013-03-11 20:01:00,44.0,34.0,30.09,SW,233,12.0,15.0,68,-99.99,,,-99.99,0.200000,,2013-03-12 02:01:00,
2013-03-11 20:11:00,43.0,34.0,30.09,SW,219,11.0,14.0,69,-99.99,,,-99.99,-0.100000,,2013-03-12 02:11:00,
2013-03-11 20:21:00,42.0,34.0,30.10,SW,215,13.0,16.0,72,-99.99,,,-99.99,-0.100000,,2013-03-12 02:21:00,
2013-03-11 20:32:00,42.0,33.0,30.10,SSW,211,14.0,16.0,71,-99.99,,,-99.99,-0.100000,,2013-03-12 02:32:00,
2013-03-11 20:41:00,42.0,33.0,30.10,SSW,213,13.0,16.0,71,-99.99,,,-99.99,-0.100000,,2013-03-12 02:41:00,
2013-03-11 20:51:00,42.0,33.0,30.10,SW,217,13.0,16.0,71,-99.99,,,-99.99,0.000000,,2013-03-12 02:51:00,
2013-03-11 21:01:00,42.0,32.0,30.10,SW,221,16.0,19.0,68,-99.99,,,-99.99,-0.100000,,2013-03-12 03:01:00,
2013-03-11 21:11:00,42.0,32.0,30.10,SW,215,14.0,16.0,69,-99.99,,,-99.99,-0.100000,,2013-03-12 03:11:00,
2013-03-11 21:32:00,41.0,32.0,30.10,SSW,203,17.0,21.0,69,-99.99,,,-99.99,-0.100000,,2013-03-12 03:32:00,
2013-03-11 21:42:00,42.0,32.0,30.11,SSW,209,15.0,19.0,67,-99.99,,,-99.99,-0.100000,,2013-03-12 03:42:00,
2013-03-11 21:51:00,41.0,32.0,30.11,SSW,210,14.0,17.0,69,-99.99,,,-99.99,-0.100000,,2013-03-12 03:51:00,
2013-03-11 22:02:00,41.0,32.0,30.12,SW,221,15.0,19.0,67,-99.99,,,-99.99,-0.100000,,2013-03-12 04:02:00,
2013-03-11 22:12:00,41.0,32.0,30.12,SW,218,14.0,17.0,68,-99.99,,,-99.99,-0.100000,,2013-03-12 04:12:00,
2013-03-11 22:22:00,41.0,31.0,30.12,SW,221,14.0,17.0,69,-99.99,,,-99.99,0.000000,,2013-03-12 04:22:00,
2013-03-11 22:32:00,40.0,32.0,30.13,SW,214,13.0,16.0,70,-99.99,,,-99.99,0.000000,,2013-03-12 04:32:00,
2013-03-11 22:42:00,40.0,31.0,30.13,SW,216,13.0,16.0,72,-99.99,,,-99.99,-0.100000,,2013-03-12 04:42:00,
2013-03-11 22:52:00,40.0,32.0,30.13,SW,217,14.0,16.0,72,-99.99,,,-99.99,-0.100000,,2013-03-12 04:52:00,
2013-03-11 23:02:00,39.0,31.0,30.13,SW,218,15.0,17.0,72,-99.99,,,-99.99,-0.100000,,2013-03-12 05:02:00,
2013-03-11 23:11:00,40.0,31.0,30.13,SW,221,16.0,19.0,71,-99.99,,,-99.99,-0.100000,,2013-03-12 05:11:00,
2013-03-11 23:21:00,40.0,31.0,30.13,SW,221,15.0,19.0,70,-99.99,,,-99.99,-0.100000,,2013-03-12 05:21:00,
2013-03-11 23:31:00,40.0,31.0,30.13,SW,222,16.0,21.0,69,-99.99,,,-99.99,-0.100000,,2013-03-12 05:31:00,
2013-03-11 23:41:00,39.0,31.0,30.14,SW,215,14.0,18.0,70,-99.99,,,-99.99,-0.100000,,2013-03-12 05:41:00,
2013-03-11 23:52:00,39.0,31.0,30.14,SSW,212,13.0,15.0,71,-99.99,,,-99.99,-0.100000,,2013-03-12 05:52:00,